Time;durP1;ratioP1;P1;durP2;ratioP2;P2;SDS_P1;SDS_P2;PMS_P1;PMS_P2;Temp;Humidity;BMP_temperature;BMP_pressure;BME280_temperature;BME280_humidity;BME280_pressure;Samples;Min_cycle;Max_cycle;Signal;HPM_P1;HPM_P2
2023/11/05 00:00:09;;;;;;;;;2.50;1.50;;;;;15.22;100.00;96497.94;2062876;28;46292;-57
2023/11/05 00:01:09;;;;;;;;;3.75;3.75;;;;;15.22;100.00;96505.97;2062970;28;46656;-54
2023/11/05 00:02:09;;;;;;;;;2.00;2.00;;;;;15.21;100.00;96493.59;2063186;28;46343;-57
2023/11/05 00:03:10;;;;;;;;;0.67;0.67;;;;;15.27;100.00;96500.97;2062678;28;46911;-57
2023/11/05 00:04:10;;;;;;;;;3.00;2.00;;;;;15.28;100.00;96491.97;2063104;28;46239;-57
2023/11/05 00:05:14;;;;;;;;;2.00;2.00;;;;;15.28;100.00;96491.97;2062702;28;46421;-55
2023/11/05 00:06:14;;;;;;;;;3.75;1.00;;;;;15.29;100.00;96490.97;2062529;28;46762;-56
2023/11/05 00:07:15;;;;;;;;;2.00;1.00;;;;;15.30;100.00;96491.78;2063308;28;46814;-58
2023/11/05 00:08:15;;;;;;;;;1.00;1.00;;;;;15.30;100.00;96494.47;2062152;28;46758;-55
2023/11/05 00:09:15;;;;;;;;;1.67;1.67;;;;;15.30;100.00;96494.47;2062243;28;46385;-56
2023/11/05 00:10:16;;;;;;;;;2.00;2.00;;;;;15.30;100.00;96495.28;2061839;28;46919;-59
2023/11/05 00:11:16;;;;;;;;;4.33;1.67;;;;;15.31;100.00;96493.47;2062226;28;47071;-56
2023/11/05 00:12:16;;;;;;;;;2.67;1.33;;;;;15.33;100.00;96483.44;2062882;28;46789;-58
2023/11/05 00:13:17;;;;;;;;;1.00;1.00;;;;;15.31;100.00;96480.09;2057050;28;46358;-59
2023/11/05 00:14:17;;;;;;;;;1.00;1.00;;;;;15.32;100.00;96487.94;2055793;28;46471;-54
2023/11/05 00:15:17;;;;;;;;;0.33;0.33;;;;;15.34;100.00;96485.09;2063151;28;46818;-55
2023/11/05 00:16:18;;;;;;;;;1.00;1.00;;;;;15.35;100.00;96486.78;2063083;28;46486;-57
2023/11/05 00:17:18;;;;;;;;;0.67;0.67;;;;;15.34;100.00;96487.78;2062804;28;46153;-58
2023/11/05 00:18:18;;;;;;;;;2.67;1.00;;;;;15.33;100.00;96478.09;2062886;28;46864;-56
2023/11/05 00:19:19;;;;;;;;;0.67;0.33;;;;;15.30;100.00;96478.44;2062962;28;46602;-59
2023/11/05 00:20:19;;;;;;;;;1.33;1.33;;;;;15.29;100.00;96480.28;2062655;28;46517;-58
2023/11/05 00:21:20;;;;;;;;;2.00;1.00;;;;;15.29;100.00;96471.44;2061713;28;46100;-55
2023/11/05 00:22:20;;;;;;;;;3.67;2.00;;;;;15.28;100.00;96475.09;2062479;28;46536;-55
2023/11/05 00:23:21;;;;;;;;;2.00;1.00;;;;;15.28;100.00;96480.44;2059082;28;45203;-50
2023/11/05 00:24:21;;;;;;;;;3.33;2.00;;;;;15.27;100.00;96478.78;2053070;28;46351;-53
2023/11/05 00:25:21;;;;;;;;;3.00;1.33;;;;;15.26;100.00;96474.44;2062093;28;46072;-56
2023/11/05 00:26:22;;;;;;;;;1.67;1.67;;;;;15.24;100.00;96471.06;2062171;28;46821;-57
2023/11/05 00:27:22;;;;;;;;;3.00;2.00;;;;;15.24;100.00;96473.75;2062068;28;46708;-53
2023/11/05 00:28:22;;;;;;;;;3.00;3.00;;;;;15.24;100.00;96473.75;2054658;28;46533;-54
2023/11/05 00:29:23;;;;;;;;;1.33;1.33;;;;;15.25;100.00;96472.78;2055005;28;46291;-58
2023/11/05 00:30:23;;;;;;;;;2.00;1.00;;;;;15.27;100.00;96474.28;2054878;28;46677;-58
2023/11/05 00:31:24;;;;;;;;;2.33;2.00;;;;;15.29;100.00;96480.28;2054613;28;46388;-56
2023/11/05 00:32:24;;;;;;;;;2.00;1.00;;;;;15.27;100.00;96468.94;2054907;28;46307;-55
2023/11/05 00:33:25;;;;;;;;;0.33;0.33;;;;;15.30;100.00;96465.09;2055005;28;46325;-56
2023/11/05 00:34:25;;;;;;;;;0.00;0.00;;;;;15.32;100.00;96471.09;2054901;28;46479;-56
2023/11/05 00:35:25;;;;;;;;;2.33;0.67;;;;;15.34;100.00;96465.56;2054100;28;46318;-56
2023/11/05 00:36:26;;;;;;;;;1.00;1.00;;;;;15.35;100.00;96465.41;2054260;28;46677;-56
2023/11/05 00:37:26;;;;;;;;;1.00;1.00;;;;;15.36;100.00;96469.75;2061611;28;46481;-55
2023/11/05 00:38:26;;;;;;;;;1.67;1.33;;;;;15.35;100.00;96454.72;2063221;28;46467;-56
2023/11/05 00:39:26;;;;;;;;;3.00;1.33;;;;;15.32;100.00;96458.56;2062764;28;46353;-56
2023/11/05 00:40:27;;;;;;;;;2.00;2.00;;;;;15.31;100.00;96467.56;2062645;28;45870;-54
2023/11/05 00:41:27;;;;;;;;;1.67;1.67;;;;;15.30;100.00;96465.09;2062874;28;46842;-54
2023/11/05 00:42:28;;;;;;;;;0.00;0.00;;;;;15.31;100.00;96458.72;2062704;28;46299;-57
2023/11/05 00:43:29;;;;;;;;;1.00;1.00;;;;;15.31;100.00;96456.91;2062831;28;46430;-60
2023/11/05 00:44:30;;;;;;;;;1.00;1.00;;;;;15.31;100.00;96461.41;2063125;28;46677;-58
2023/11/05 00:45:30;;;;;;;;;3.33;0.67;;;;;15.31;100.00;96461.41;2062319;28;46123;-58
2023/11/05 00:46:31;;;;;;;;;1.33;1.00;;;;;15.31;100.00;96456.91;2062021;28;46909;-55
2023/11/05 00:47:31;;;;;;;;;2.33;2.00;;;;;15.30;100.00;96457.06;2057310;28;46224;-60
2023/11/05 00:48:31;;;;;;;;;2.00;2.00;;;;;15.30;100.00;96457.91;2054896;28;46939;-55
2023/11/05 00:49:32;;;;;;;;;3.00;1.00;;;;;15.31;100.00;96456.91;2069955;28;46901;-59
2023/11/05 00:50:32;;;;;;;;;4.33;2.67;;;;;15.31;100.00;96459.56;2070866;28;46663;-54
2023/11/05 00:51:32;;;;;;;;;3.67;1.00;;;;;15.29;100.00;96453.56;2054376;28;46440;-55
2023/11/05 00:52:33;;;;;;;;;1.00;1.00;;;;;15.29;100.00;96455.41;2054950;28;46472;-57
2023/11/05 00:53:33;;;;;;;;;1.33;1.33;;;;;15.29;100.00;96444.72;2054154;28;46445;-53
2023/11/05 00:54:33;;;;;;;;;3.00;2.00;;;;;15.29;100.00;96450.06;2062565;28;46694;-56
2023/11/05 00:55:34;;;;;;;;;4.67;2.00;;;;;15.29;100.00;96461.56;2062781;28;46280;-57
2023/11/05 00:56:34;;;;;;;;;1.33;1.33;;;;;15.28;100.00;96443.88;2062738;28;46264;-56
2023/11/05 00:57:35;;;;;;;;;1.00;0.00;;;;;15.28;100.00;96459.91;2062619;28;46448;-57
2023/11/05 00:58:35;;;;;;;;;3.00;3.00;;;;;15.28;100.00;96451.06;2062852;28;45895;-56
2023/11/05 00:59:35;;;;;;;;;1.67;1.67;;;;;15.28;100.00;96459.91;2062099;28;46458;-54
2023/11/05 01:00:36;;;;;;;;;2.00;1.00;;;;;15.27;100.00;96447.56;2061802;28;46301;-56
2023/11/05 01:01:36;;;;;;;;;3.00;1.33;;;;;15.27;100.00;96452.91;2059198;28;45884;-56
2023/11/05 01:02:36;;;;;;;;;3.00;3.00;;;;;15.26;100.00;96448.56;2054876;28;46579;-55
2023/11/05 01:03:37;;;;;;;;;0.67;0.67;;;;;15.24;100.00;96439.84;2061839;28;46492;-57
2023/11/05 01:04:37;;;;;;;;;1.67;1.67;;;;;15.23;100.00;96451.53;2062854;28;46184;-58
2023/11/05 01:05:37;;;;;;;;;3.67;2.33;;;;;15.23;100.00;96445.38;2062846;28;46596;-54
2023/11/05 01:06:41;;;;;;;;;4.67;3.00;;;;;15.23;100.00;96448.88;2062771;28;46498;-57
2023/11/05 01:07:41;;;;;;;;;1.50;1.50;;;;;15.24;100.00;96455.88;2062753;28;46532;-59
2023/11/05 01:08:41;;;;;;;;;3.00;3.00;;;;;15.24;100.00;96453.22;2062940;28;46083;-58
2023/11/05 01:09:41;;;;;;;;;6.33;6.33;;;;;15.24;100.00;96449.69;2058552;28;46182;-57
2023/11/05 01:10:42;;;;;;;;;5.33;5.33;;;;;15.26;100.00;96447.72;2070138;28;46552;-57
2023/11/05 01:11:42;;;;;;;;;4.00;3.33;;;;;15.27;100.00;96446.72;2073834;27;45608;-55
2023/11/05 01:12:43;;;;;;;;;7.00;7.00;;;;;15.29;100.00;96444.72;2062769;28;46665;-57
2023/11/05 01:13:43;;;;;;;;;15.00;15.00;;;;;15.30;100.00;96451.72;2062114;28;46422;-59
2023/11/05 01:14:43;;;;;;;;;20.67;19.33;;;;;15.30;100.00;96446.38;2062641;28;46318;-57
2023/11/05 01:15:43;;;;;;;;;15.33;13.67;;;;;15.31;100.00;96448.06;2062529;28;46001;-55
2023/11/05 01:16:44;;;;;;;;;24.25;20.50;;;;;15.31;100.00;96450.72;2062079;28;46265;-57
2023/11/05 01:17:45;;;;;;;;;7.00;7.00;;;;;15.32;100.00;96439.88;2062763;28;46549;-53
2023/11/05 01:18:45;;;;;;;;;14.00;13.67;;;;;15.33;100.00;96446.03;2062998;28;46298;-59
2023/11/05 01:19:45;;;;;;;;;20.50;20.50;;;;;15.32;100.00;96442.53;2062798;28;46212;-59
2023/11/05 01:20:46;;;;;;;;;42.50;35.00;;;;;15.34;100.00;96449.53;2062154;28;46344;-57
2023/11/05 01:21:46;;;;;;;;;18.25;18.25;;;;;15.32;100.00;96445.22;2062965;28;45957;-58
2023/11/05 01:22:47;;;;;;;;;27.75;24.75;;;;;15.33;100.00;96446.03;2062091;28;46514;-53
2023/11/05 01:23:47;;;;;;;;;33.00;30.25;;;;;15.35;100.00;96446.69;2054538;28;46160;-58
2023/11/05 01:24:48;;;;;;;;;12.67;11.67;;;;;15.36;100.00;96445.69;2062385;28;46164;-54
2023/11/05 01:25:48;;;;;;;;;4.00;4.00;;;;;15.36;100.00;96447.53;2062731;28;46504;-57
2023/11/05 01:26:48;;;;;;;;;4.00;4.00;;;;;15.37;100.00;96443.88;2062635;28;46616;-55
2023/11/05 01:27:49;;;;;;;;;32.75;31.25;;;;;15.36;100.00;96439.53;2057541;28;46703;-57
2023/11/05 01:28:49;;;;;;;;;19.25;17.00;;;;;15.37;100.00;96433.19;2054098;28;46691;-58
2023/11/05 01:29:49;;;;;;;;;25.75;23.75;;;;;15.38;100.00;96438.38;2060452;28;46157;-55
2023/11/05 01:30:50;;;;;;;;;16.33;14.33;;;;;15.39;100.00;96445.38;2062310;28;46237;-56
2023/11/05 01:31:50;;;;;;;;;56.75;46.00;;;;;15.39;100.00;96442.72;2062789;28;46178;-58
2023/11/05 01:32:50;;;;;;;;;12.33;10.00;;;;;15.38;100.00;96443.72;2062526;28;46213;-57
2023/11/05 01:33:50;;;;;;;;;21.25;20.25;;;;;15.38;100.00;96450.91;2062712;28;46301;-54
2023/11/05 01:34:51;;;;;;;;;5.67;5.00;;;;;15.36;100.00;96453.72;2062415;28;46689;-57
2023/11/05 01:35:51;;;;;;;;;5.00;4.00;;;;;15.34;100.00;96460.22;2062030;28;46192;-55
2023/11/05 01:36:51;;;;;;;;;9.00;8.00;;;;;15.32;100.00;96455.06;2061549;28;46635;-55
2023/11/05 01:37:52;;;;;;;;;12.67;10.67;;;;;15.32;100.00;96452.38;2062034;28;46306;-57
2023/11/05 01:38:52;;;;;;;;;25.50;25.50;;;;;15.31;100.00;96459.56;2058971;28;46381;-55
2023/11/05 01:39:52;;;;;;;;;19.00;19.00;;;;;15.32;100.00;96458.56;2061780;28;46291;-58
2023/11/05 01:40:53;;;;;;;;;17.25;16.50;;;;;15.33;100.00;96459.41;2054018;28;45540;-55
2023/11/05 01:41:53;;;;;;;;;37.75;33.50;;;;;15.32;100.00;96458.56;2053738;28;46399;-55
2023/11/05 01:42:58;;;;;;;;;23.75;19.00;;;;;15.32;100.00;96460.41;2054623;28;45395;-58
2023/11/05 01:44:00;;;;;;;;;7.75;7.75;;;;;15.31;100.00;96448.06;2054191;28;46555;-56
2023/11/05 01:45:00;;;;;;;;;3.50;1.50;;;;;15.29;100.00;96456.22;2054392;28;46845;-54
2023/11/05 01:46:01;;;;;;;;;13.33;11.67;;;;;15.28;100.00;96459.06;2056314;28;46931;-57
2023/11/05 01:47:02;;;;;;;;;21.25;19.50;;;;;15.27;100.00;96465.41;2062155;28;46792;-58
2023/11/05 01:48:02;;;;;;;;;8.67;7.00;;;;;15.28;100.00;96467.09;2103616;28;46572;-56
2023/11/05 01:49:04;;;;;;;;;13.00;12.00;;;;;15.27;100.00;96460.06;2095447;28;46258;-59
2023/11/05 01:50:05;;;;;;;;;8.75;8.00;;;;;15.25;100.00;96465.59;2061793;28;46582;-56
2023/11/05 01:51:13;;;;;;;;;6.67;4.00;;;;;15.24;100.00;96482.59;2086944;28;46345;-53
2023/11/05 01:52:13;;;;;;;;;3.00;3.00;;;;;15.24;100.00;96481.75;2076982;28;46648;-55
2023/11/05 01:53:14;;;;;;;;;5.67;4.00;;;;;15.23;100.00;96482.75;2055443;28;46314;-56
2023/11/05 01:54:15;;;;;;;;;17.00;17.00;;;;;15.21;100.00;96485.59;2062058;28;46176;-57
2023/11/05 01:55:16;;;;;;;;;9.50;8.50;;;;;15.22;100.00;96484.59;2061915;28;46444;-53
2023/11/05 01:56:22;;;;;;;;;4.67;4.67;;;;;15.20;100.00;96481.25;2103387;28;46868;-53
2023/11/05 01:57:23;;;;;;;;;5.25;5.00;;;;;15.19;100.00;96481.44;2100528;28;46929;-54
2023/11/05 01:58:23;;;;;;;;;9.33;8.00;;;;;15.20;100.00;96488.44;2061896;28;46769;-56
2023/11/05 01:59:23;;;;;;;;;3.67;3.67;;;;;15.19;100.00;96482.25;2062320;28;46351;-59
2023/11/05 02:00:24;;;;;;;;;5.00;3.33;;;;;15.19;100.00;96494.78;2062231;28;46991;-57
2023/11/05 02:01:26;;;;;;;;;2.00;1.25;;;;;15.14;100.00;96495.28;2062246;28;46592;-58
2023/11/05 02:02:28;;;;;;;;;4.25;3.50;;;;;15.13;100.00;96506.97;2062530;28;46850;-57
2023/11/05 02:03:28;;;;;;;;;3.25;2.75;;;;;15.12;100.00;96491.94;2061240;28;46145;-56
2023/11/05 02:04:28;;;;;;;;;2.67;2.67;;;;;15.12;100.00;96502.63;2094759;28;45534;-55
2023/11/05 02:05:29;;;;;;;;;6.00;6.00;;;;;15.15;100.00;96504.13;2094678;28;46672;-58
2023/11/05 02:06:29;;;;;;;;;19.75;17.75;;;;;15.16;100.00;96509.31;2060769;28;47250;-59
2023/11/05 02:07:29;;;;;;;;;4.00;3.00;;;;;15.17;100.00;96512.81;2061031;28;46665;-58
2023/11/05 02:08:30;;;;;;;;;3.67;3.33;;;;;15.16;100.00;96511.97;2061077;28;46292;-55
2023/11/05 02:09:31;;;;;;;;;3.33;3.00;;;;;15.16;100.00;96501.28;2062167;28;46582;-55
2023/11/05 02:10:31;;;;;;;;;2.50;1.50;;;;;15.15;100.00;96507.63;2062181;28;46240;-59
2023/11/05 02:11:32;;;;;;;;;1.00;1.00;;;;;15.16;100.00;96503.97;2063081;28;45200;-57
2023/11/05 02:12:32;;;;;;;;;1.00;1.00;;;;;15.11;100.00;96516.94;2062441;28;46869;-52
2023/11/05 02:13:43;;;;;;;;;1.33;1.33;;;;;15.14;100.00;96523.81;2062378;28;46295;-58
2023/11/05 02:14:50;;;;;;;;;1.00;1.00;;;;;15.13;100.00;96517.66;2062306;28;46543;-59
2023/11/05 02:15:52;;;;;;;;;1.00;1.00;;;;;15.09;100.00;96526.97;2062341;28;46623;-57
2023/11/05 02:16:52;;;;;;;;;0.00;0.00;;;;;15.11;100.00;96532.13;2062329;28;46992;-56
2023/11/05 02:17:52;;;;;;;;;1.00;1.00;;;;;15.12;100.00;96533.81;2062045;28;46494;-55
2023/11/05 02:18:52;;;;;;;;;0.00;0.00;;;;;15.11;100.00;96530.31;2062293;28;46339;-57
2023/11/05 02:19:53;;;;;;;;;2.00;1.00;;;;;15.11;100.00;96548.16;2062575;28;46472;-58
2023/11/05 02:20:53;;;;;;;;;1.00;1.00;;;;;15.09;100.00;96536.81;2062324;28;46775;-56
2023/11/05 02:22:00;;;;;;;;;2.00;2.00;;;;;15.11;100.00;96542.81;2061835;28;46727;-59
2023/11/05 02:23:05;;;;;;;;;1.00;1.00;;;;;14.99;100.00;96537.81;2059967;28;46266;-59
2023/11/05 02:24:06;;;;;;;;;1.00;1.00;;;;;14.95;100.00;96547.13;2056813;28;46661;-55
2023/11/05 02:25:06;;;;;;;;;1.00;1.00;;;;;14.96;100.00;96543.44;2062234;28;46715;-53
2023/11/05 02:26:08;;;;;;;;;0.00;0.00;;;;;14.96;100.00;96555.97;2062177;28;45826;-55
2023/11/05 02:27:08;;;;;;;;;0.50;0.50;;;;;14.96;100.00;96553.28;2062546;28;46709;-54
2023/11/05 02:28:09;;;;;;;;;0.00;0.00;;;;;14.94;100.00;96552.63;2062438;28;46231;-55
2023/11/05 02:29:09;;;;;;;;;2.00;0.00;;;;;14.92;100.00;96547.44;2062251;28;46662;-57
2023/11/05 02:30:10;;;;;;;;;0.00;0.00;;;;;14.92;100.00;96563.47;2062311;28;46277;-55
2023/11/05 02:31:10;;;;;;;;;2.00;0.00;;;;;14.93;100.00;96556.28;2061490;28;46930;-56
2023/11/05 02:32:10;;;;;;;;;0.33;0.33;;;;;14.92;100.00;96560.81;2061481;28;46671;-60
2023/11/05 02:33:11;;;;;;;;;0.00;0.00;;;;;14.92;100.00;96559.97;2062101;28;46215;-57
2023/11/05 02:34:11;;;;;;;;;0.67;0.33;;;;;14.92;100.00;96573.31;2062328;28;46405;-57
2023/11/05 02:35:12;;;;;;;;;0.67;0.67;;;;;14.93;100.00;96564.31;2062348;28;46712;-59
2023/11/05 02:36:12;;;;;;;;;0.00;0.00;;;;;14.93;100.00;96566.97;2061359;28;46356;-56
2023/11/05 02:37:13;;;;;;;;;0.00;0.00;;;;;14.93;100.00;96564.31;2061834;28;46578;-58
2023/11/05 02:38:13;;;;;;;;;0.00;0.00;;;;;14.93;100.00;96569.63;2062307;28;46447;-57
2023/11/05 02:39:13;;;;;;;;;1.00;0.00;;;;;14.93;100.00;96557.13;2062318;28;47019;-55
2023/11/05 02:40:14;;;;;;;;;0.00;0.00;;;;;14.96;100.00;96574.66;2062072;28;46215;-56
2023/11/05 02:41:14;;;;;;;;;0.33;0.00;;;;;14.95;100.00;96572.97;2062240;28;46326;-55
2023/11/05 02:42:14;;;;;;;;;0.00;0.00;;;;;14.94;100.00;96572.16;2061968;28;46103;-54
2023/11/05 02:43:15;;;;;;;;;2.00;0.67;;;;;14.96;100.00;96574.66;2062219;28;46429;-58
2023/11/05 02:44:15;;;;;;;;;0.00;0.00;;;;;14.96;100.00;96580.81;2061773;28;46728;-56
2023/11/05 02:45:16;;;;;;;;;0.00;0.00;;;;;14.96;100.00;96580.81;2060288;28;46263;-54
2023/11/05 02:46:16;;;;;;;;;0.00;0.00;;;;;14.95;100.00;96576.47;2054273;28;46445;-58
2023/11/05 02:47:16;;;;;;;;;0.00;0.00;;;;;14.93;100.00;96577.66;2053707;28;46209;-56
2023/11/05 02:48:17;;;;;;;;;0.00;0.00;;;;;14.93;100.00;96586.50;2054224;28;45765;-57
2023/11/05 02:49:17;;;;;;;;;1.00;0.00;;;;;14.93;100.00;96583.00;2053991;28;46220;-58
2023/11/05 02:50:17;;;;;;;;;1.33;1.33;;;;;14.95;100.00;96589.84;2054232;28;46181;-57
2023/11/05 02:51:18;;;;;;;;;0.00;0.00;;;;;14.96;100.00;96586.16;2057458;28;46472;-57
2023/11/05 02:52:18;;;;;;;;;2.00;0.67;;;;;14.97;100.00;96603.00;2069530;28;46217;-55
2023/11/05 02:53:19;;;;;;;;;0.00;0.00;;;;;14.96;100.00;96594.16;2069316;28;46509;-59
2023/11/05 02:54:19;;;;;;;;;0.33;0.33;;;;;14.95;100.00;96597.84;2054023;28;46267;-59
2023/11/05 02:55:19;;;;;;;;;0.00;0.00;;;;;14.95;100.00;96615.69;2058290;28;46790;-57
2023/11/05 02:56:20;;;;;;;;;1.33;1.00;;;;;14.95;100.00;96607.69;2062398;28;46461;-55
2023/11/05 02:57:21;;;;;;;;;0.00;0.00;;;;;14.94;100.00;96606.00;2058897;28;46352;-56
2023/11/05 02:58:21;;;;;;;;;1.00;1.00;;;;;14.91;100.00;96609.00;2062215;28;46212;-59
2023/11/05 02:59:25;;;;;;;;;0.00;0.00;;;;;14.92;100.00;96608.00;2103501;28;46497;-57
2023/11/05 03:00:28;;;;;;;;;0.50;0.00;;;;;14.93;100.00;96618.53;2100840;28;46931;-55
2023/11/05 03:01:29;;;;;;;;;0.00;0.00;;;;;14.94;100.00;96627.38;2062140;28;46516;-57
2023/11/05 03:02:31;;;;;;;;;1.00;1.00;;;;;14.96;100.00;96628.03;2062005;28;46412;-57
2023/11/05 03:03:32;;;;;;;;;0.00;0.00;;;;;14.97;100.00;96627.03;2061729;28;46554;-59
2023/11/05 03:04:32;;;;;;;;;0.00;0.00;;;;;14.95;100.00;96635.22;2063282;28;46226;-55
2023/11/05 03:05:32;;;;;;;;;0.00;0.00;;;;;14.95;100.00;96635.22;2063810;28;46455;-55
2023/11/05 03:06:33;;;;;;;;;1.00;1.00;;;;;14.93;100.00;96650.56;2063487;28;45685;-57
2023/11/05 03:07:33;;;;;;;;;0.33;0.33;;;;;14.96;100.00;96622.69;2063701;28;45749;-57
2023/11/05 03:08:34;;;;;;;;;0.00;0.00;;;;;14.94;100.00;96635.38;2062433;28;45421;-57
2023/11/05 03:09:34;;;;;;;;;0.00;0.00;;;;;14.93;100.00;96647.88;2063337;28;46522;-55
2023/11/05 03:10:34;;;;;;;;;0.00;0.00;;;;;14.95;100.00;96648.56;2063205;28;46116;-56
2023/11/05 03:11:35;;;;;;;;;0.00;0.00;;;;;14.95;100.00;96653.91;2063549;28;46594;-57
2023/11/05 03:12:35;;;;;;;;;0.00;0.00;;;;;14.95;100.00;96647.72;2063377;28;46446;-56
2023/11/05 03:13:35;;;;;;;;;1.00;0.00;;;;;14.94;100.00;96656.72;2062988;28;46251;-57
2023/11/05 03:14:36;;;;;;;;;0.67;0.67;;;;;14.95;100.00;96661.06;2063259;28;46944;-58
2023/11/05 03:15:36;;;;;;;;;1.00;1.00;;;;;14.92;100.00;96661.41;2063498;28;46589;-55
2023/11/05 03:16:38;;;;;;;;;0.33;0.33;;;;;14.92;100.00;96664.06;2062944;28;46265;-55
2023/11/05 03:17:38;;;;;;;;;1.25;0.00;;;;;14.92;100.00;96658.72;2063233;28;46758;-53
2023/11/05 03:18:42;;;;;;;;;0.00;0.00;;;;;14.94;100.00;96662.06;2063639;28;46698;-56
2023/11/05 03:19:43;;;;;;;;;0.25;0.25;;;;;14.94;100.00;96654.06;2063014;28;46630;-56
2023/11/05 03:20:43;;;;;;;;;0.00;0.00;;;;;14.99;100.00;96665.09;2063061;28;46541;-55
2023/11/05 03:21:43;;;;;;;;;1.00;0.00;;;;;15.01;100.00;96668.47;2063055;28;46833;-57
2023/11/05 03:22:45;;;;;;;;;0.00;0.00;;;;;15.01;100.00;96673.81;2059837;28;46591;-58
2023/11/05 03:23:45;;;;;;;;;1.25;0.75;;;;;15.00;100.00;96670.28;2061570;28;46682;-56
2023/11/05 03:24:45;;;;;;;;;0.33;0.33;;;;;15.00;100.00;96680.13;2063540;28;46626;-53
2023/11/05 03:25:45;;;;;;;;;0.00;0.00;;;;;15.00;100.00;96672.97;2063114;28;46981;-57
2023/11/05 03:26:46;;;;;;;;;0.00;0.00;;;;;15.00;100.00;96675.63;2063119;28;46609;-59
2023/11/05 03:27:46;;;;;;;;;0.67;0.67;;;;;15.00;100.00;96680.97;2063140;28;46533;-57
2023/11/05 03:28:46;;;;;;;;;0.00;0.00;;;;;15.01;100.00;96687.16;2063328;28;46591;-57
2023/11/05 03:29:47;;;;;;;;;0.00;0.00;;;;;15.01;100.00;96687.16;2062889;28;46790;-59
2023/11/05 03:30:47;;;;;;;;;1.00;1.00;;;;;15.00;100.00;96686.31;2060299;28;46489;-55
2023/11/05 03:31:49;;;;;;;;;0.00;0.00;;;;;15.00;100.00;96686.31;2055268;28;46517;-55
2023/11/05 03:32:49;;;;;;;;;0.00;0.00;;;;;15.02;100.00;96678.97;2054949;28;45683;-54
2023/11/05 03:33:50;;;;;;;;;0.33;0.00;;;;;15.01;100.00;96685.31;2055040;28;46520;-58
2023/11/05 03:34:52;;;;;;;;;0.00;0.00;;;;;15.02;100.00;96678.97;2055320;28;46518;-58
2023/11/05 03:35:53;;;;;;;;;0.75;0.75;;;;;15.02;100.00;96680.81;2054735;28;46557;-57
2023/11/05 03:36:53;;;;;;;;;0.00;0.00;;;;;15.02;100.00;96691.50;2055350;28;46544;-53
2023/11/05 03:37:53;;;;;;;;;2.67;1.00;;;;;15.02;100.00;96694.16;2067453;28;46307;-54
2023/11/05 03:38:54;;;;;;;;;0.00;0.00;;;;;15.04;100.00;96689.50;2059616;28;46817;-57
2023/11/05 03:39:54;;;;;;;;;0.00;0.00;;;;;15.05;100.00;96687.66;2055961;28;46716;-55
2023/11/05 03:40:54;;;;;;;;;0.00;0.00;;;;;15.05;100.00;96691.16;2062556;28;46242;-55
2023/11/05 03:41:55;;;;;;;;;1.67;0.00;;;;;15.06;100.00;96700.84;2054523;28;45573;-58
2023/11/05 03:42:55;;;;;;;;;1.33;1.33;;;;;15.07;100.00;96702.53;2061050;28;46223;-59
2023/11/05 03:43:55;;;;;;;;;0.00;0.00;;;;;15.08;100.00;96706.84;2061504;28;46363;-55
2023/11/05 03:44:56;;;;;;;;;0.00;0.00;;;;;15.07;100.00;96704.34;2055253;28;46897;-52
2023/11/05 03:45:56;;;;;;;;;0.00;0.00;;;;;15.08;100.00;96709.53;2062273;28;46231;-53
2023/11/05 03:46:56;;;;;;;;;0.00;0.00;;;;;15.08;100.00;96696.19;2063635;28;46268;-57
2023/11/05 03:47:57;;;;;;;;;1.00;1.00;;;;;15.10;100.00;96702.19;2063118;28;46610;-59
2023/11/05 03:48:57;;;;;;;;;1.00;1.00;;;;;15.10;100.00;96709.38;2062917;28;46335;-60
2023/11/05 03:49:58;;;;;;;;;2.67;1.00;;;;;15.10;100.00;96714.72;2063170;28;46288;-56
2023/11/05 03:50:58;;;;;;;;;0.33;0.00;;;;;15.09;100.00;96716.53;2063011;28;46574;-55
2023/11/05 03:52:03;;;;;;;;;1.00;1.00;;;;;15.09;100.00;96719.22;2063373;28;46539;-56
2023/11/05 03:53:03;;;;;;;;;0.00;0.00;;;;;15.09;100.00;96719.22;2063083;28;46395;-56
2023/11/05 03:54:04;;;;;;;;;0.00;0.00;;;;;15.10;100.00;96728.91;2054598;28;46571;-58
2023/11/05 03:55:04;;;;;;;;;0.00;0.00;;;;;15.08;100.00;96717.53;2062733;28;46286;-55
2023/11/05 03:56:05;;;;;;;;;0.00;0.00;;;;;15.09;100.00;96731.72;2063325;28;46609;-57
2023/11/05 03:57:06;;;;;;;;;2.33;1.67;;;;;15.08;100.00;96732.72;2062651;28;46728;-59
2023/11/05 03:58:06;;;;;;;;;1.00;0.00;;;;;15.07;100.00;96729.22;2062991;28;47056;-59
2023/11/05 03:59:06;;;;;;;;;0.00;0.00;;;;;15.08;100.00;96730.06;2063299;28;46297;-56
2023/11/05 04:00:08;;;;;;;;;0.00;0.00;;;;;15.08;100.00;96730.88;2063270;28;46708;-57
2023/11/05 04:01:16;;;;;;;;;1.25;1.25;;;;;15.07;100.00;96737.22;2063409;28;46596;-54
2023/11/05 04:02:17;;;;;;;;;0.00;0.00;;;;;15.08;100.00;96744.25;2062671;28;47012;-59
2023/11/05 04:03:17;;;;;;;;;0.00;0.00;;;;;15.09;100.00;96745.06;2062413;28;46398;-54
2023/11/05 04:04:18;;;;;;;;;0.00;0.00;;;;;15.09;100.00;96745.91;2055385;28;46661;-58
2023/11/05 04:05:19;;;;;;;;;1.00;1.00;;;;;15.10;100.00;96752.09;2060243;28;46569;-55
2023/11/05 04:06:19;;;;;;;;;2.33;0.00;;;;;15.09;100.00;96743.25;2062159;28;46224;-58
2023/11/05 04:07:19;;;;;;;;;0.00;0.00;;;;;15.09;100.00;96750.41;2063276;28;46248;-59
2023/11/05 04:08:20;;;;;;;;;0.00;0.00;;;;;15.09;100.00;96755.75;2063465;28;45922;-60
2023/11/05 04:09:20;;;;;;;;;1.67;1.00;;;;;15.10;100.00;96749.41;2062644;28;46264;-55
2023/11/05 04:10:21;;;;;;;;;0.00;0.00;;;;;15.10;100.00;96760.94;2063347;28;46551;-55
2023/11/05 04:11:21;;;;;;;;;1.00;1.00;;;;;15.11;100.00;96761.78;2060666;28;46307;-57
2023/11/05 04:12:22;;;;;;;;;0.00;0.00;;;;;15.12;100.00;96763.44;2058238;28;46531;-58
2023/11/05 04:13:22;;;;;;;;;0.00;0.00;;;;;15.12;100.00;96768.78;2062909;28;46994;-58
2023/11/05 04:14:23;;;;;;;;;0.00;0.00;;;;;15.13;100.00;96773.16;2062687;28;46265;-58
2023/11/05 04:15:23;;;;;;;;;0.00;0.00;;;;;15.13;100.00;96766.00;2062164;28;46166;-58
2023/11/05 04:16:23;;;;;;;;;0.00;0.00;;;;;15.12;100.00;96763.44;2063287;28;45958;-55
2023/11/05 04:17:23;;;;;;;;;0.00;0.00;;;;;15.12;100.00;96766.13;2063173;28;46255;-58
2023/11/05 04:18:24;;;;;;;;;0.00;0.00;;;;;15.11;100.00;96773.28;2062200;28;46472;-58
2023/11/05 04:19:24;;;;;;;;;0.00;0.00;;;;;15.12;100.00;96779.47;2062325;28;46306;-56
2023/11/05 04:20:24;;;;;;;;;0.33;0.33;;;;;15.11;100.00;96769.78;2063207;28;46286;-58
2023/11/05 04:21:25;;;;;;;;;0.00;0.00;;;;;15.09;100.00;96769.13;2061993;28;45861;-59
2023/11/05 04:22:25;;;;;;;;;0.67;0.67;;;;;15.08;100.00;96776.28;2062575;28;46647;-53
2023/11/05 04:23:26;;;;;;;;;0.67;0.67;;;;;15.08;100.00;96778.94;2063288;28;46837;-58
2023/11/05 04:24:26;;;;;;;;;0.00;0.00;;;;;15.09;100.00;96780.63;2062885;28;46543;-56
2023/11/05 04:25:27;;;;;;;;;0.00;0.00;;;;;15.09;100.00;96774.44;2062940;28;46746;-58
2023/11/05 04:26:27;;;;;;;;;0.00;0.00;;;;;15.09;100.00;96785.97;2063016;28;46679;-59
2023/11/05 04:27:27;;;;;;;;;0.00;0.00;;;;;15.11;100.00;96788.47;2062104;28;46421;-54
2023/11/05 04:28:27;;;;;;;;;0.00;0.00;;;;;15.11;100.00;96791.16;2062642;28;46271;-55
2023/11/05 04:29:28;;;;;;;;;1.00;0.00;;;;;15.11;100.00;96805.34;2062928;28;46380;-59
2023/11/05 04:30:28;;;;;;;;;0.00;0.00;;;;;15.09;100.00;96791.31;2063302;28;46912;-55
2023/11/05 04:31:28;;;;;;;;;0.67;0.00;;;;;15.09;100.00;96804.66;2062104;28;46545;-55
2023/11/05 04:32:29;;;;;;;;;0.00;0.00;;;;;15.09;100.00;96810.00;2062691;28;45671;-58
2023/11/05 04:33:29;;;;;;;;;0.00;0.00;;;;;15.15;100.00;96808.56;2063021;28;46764;-59
2023/11/05 04:34:32;;;;;;;;;0.67;0.67;;;;;15.15;100.00;96800.53;2063360;28;45016;-57
2023/11/05 04:35:32;;;;;;;;;0.00;0.00;;;;;15.15;100.00;96808.56;2063028;28;46387;-55
2023/11/05 04:36:38;;;;;;;;;0.33;0.33;;;;;15.16;100.00;96808.38;2062673;28;46274;-56
2023/11/05 04:37:39;;;;;;;;;0.25;0.00;;;;;15.14;100.00;96799.69;2062530;28;46632;-59
2023/11/05 04:38:39;;;;;;;;;1.00;1.00;;;;;15.13;100.00;96806.03;2062918;28;45781;-59
2023/11/05 04:39:42;;;;;;;;;0.67;0.67;;;;;15.15;100.00;96812.06;2062997;28;46141;-59
2023/11/05 04:40:43;;;;;;;;;0.00;0.00;;;;;15.15;100.00;96816.56;2062735;28;46332;-56
2023/11/05 04:41:43;;;;;;;;;2.00;0.00;;;;;15.16;100.00;96826.25;2103412;28;46599;-55